sensor_id;sensor_type;location;lat;lon;timestamp;temperature;humidity
11387;DHT22;5748;53.102;8.456;2022-11-04T00:00:52;16.20;59.10
11387;DHT22;5748;53.102;8.456;2022-11-04T00:03:19;16.20;59.20
11387;DHT22;5748;53.102;8.456;2022-11-04T00:05:48;16.20;59.40
11387;DHT22;5748;53.102;8.456;2022-11-04T00:08:15;16.20;59.40
11387;DHT22;5748;53.102;8.456;2022-11-04T00:10:59;16.10;59.30
11387;DHT22;5748;53.102;8.456;2022-11-04T00:13:44;16.20;59.60
11387;DHT22;5748;53.102;8.456;2022-11-04T00:16:11;16.20;59.30
11387;DHT22;5748;53.102;8.456;2022-11-04T00:18:56;16.10;59.40
11387;DHT22;5748;53.102;8.456;2022-11-04T00:21:26;16.10;59.30
11387;DHT22;5748;53.102;8.456;2022-11-04T00:24:12;16.00;59.20
11387;DHT22;5748;53.102;8.456;2022-11-04T00:26:57;16.10;59.40
11387;DHT22;5748;53.102;8.456;2022-11-04T00:29:57;16.10;59.40
11387;DHT22;5748;53.102;8.456;2022-11-04T00:32:24;16.10;59.40
11387;DHT22;5748;53.102;8.456;2022-11-04T00:35:10;16.10;59.40
11387;DHT22;5748;53.102;8.456;2022-11-04T00:37:40;16.10;59.40
11387;DHT22;5748;53.102;8.456;2022-11-04T00:40:12;16.10;59.60
11387;DHT22;5748;53.102;8.456;2022-11-04T00:42:47;16.10;59.70
11387;DHT22;5748;53.102;8.456;2022-11-04T00:45:14;16.00;59.60
11387;DHT22;5748;53.102;8.456;2022-11-04T00:47:41;16.10;59.40
11387;DHT22;5748;53.102;8.456;2022-11-04T00:50:10;16.10;59.50
11387;DHT22;5748;53.102;8.456;2022-11-04T00:52:38;16.00;59.80
11387;DHT22;5748;53.102;8.456;2022-11-04T00:55:06;16.10;59.80
11387;DHT22;5748;53.102;8.456;2022-11-04T00:57:33;16.10;60.50
11387;DHT22;5748;53.102;8.456;2022-11-04T01:00:00;16.10;59.80
11387;DHT22;5748;53.102;8.456;2022-11-04T01:02:27;16.10;59.70
11387;DHT22;5748;53.102;8.456;2022-11-04T01:04:54;16.10;59.70
11387;DHT22;5748;53.102;8.456;2022-11-04T01:07:22;16.10;59.80
11387;DHT22;5748;53.102;8.456;2022-11-04T01:09:50;16.20;59.80
11387;DHT22;5748;53.102;8.456;2022-11-04T01:12:17;16.30;60.00
11387;DHT22;5748;53.102;8.456;2022-11-04T01:14:44;16.10;59.70
11387;DHT22;5748;53.102;8.456;2022-11-04T01:17:20;16.20;59.90
11387;DHT22;5748;53.102;8.456;2022-11-04T01:19:47;16.10;60.10
11387;DHT22;5748;53.102;8.456;2022-11-04T01:22:14;16.20;59.80
11387;DHT22;5748;53.102;8.456;2022-11-04T01:24:41;16.10;59.80
11387;DHT22;5748;53.102;8.456;2022-11-04T01:27:17;16.10;59.70
11387;DHT22;5748;53.102;8.456;2022-11-04T01:29:45;16.10;60.10
11387;DHT22;5748;53.102;8.456;2022-11-04T01:32:12;16.10;59.80
11387;DHT22;5748;53.102;8.456;2022-11-04T01:34:39;16.10;59.80
11387;DHT22;5748;53.102;8.456;2022-11-04T01:37:05;16.10;59.90
11387;DHT22;5748;53.102;8.456;2022-11-04T01:39:34;16.10;59.90
11387;DHT22;5748;53.102;8.456;2022-11-04T01:42:01;16.40;60.40
11387;DHT22;5748;53.102;8.456;2022-11-04T01:44:50;16.10;60.00
11387;DHT22;5748;53.102;8.456;2022-11-04T01:47:23;16.10;60.60
11387;DHT22;5748;53.102;8.456;2022-11-04T01:50:08;16.20;60.30
11387;DHT22;5748;53.102;8.456;2022-11-04T01:52:42;16.20;60.60
11387;DHT22;5748;53.102;8.456;2022-11-04T01:55:28;16.20;60.30
11387;DHT22;5748;53.102;8.456;2022-11-04T01:58:01;16.20;60.40
11387;DHT22;5748;53.102;8.456;2022-11-04T02:00:31;16.10;60.10
11387;DHT22;5748;53.102;8.456;2022-11-04T02:03:00;16.20;60.30
11387;DHT22;5748;53.102;8.456;2022-11-04T02:05:37;16.10;60.30
11387;DHT22;5748;53.102;8.456;2022-11-04T02:08:06;16.10;60.60
11387;DHT22;5748;53.102;8.456;2022-11-04T02:10:33;16.10;60.30
11387;DHT22;5748;53.102;8.456;2022-11-04T02:13:08;16.00;60.20
11387;DHT22;5748;53.102;8.456;2022-11-04T02:15:42;16.00;60.50
11387;DHT22;5748;53.102;8.456;2022-11-04T02:18:25;15.90;60.40
11387;DHT22;5748;53.102;8.456;2022-11-04T02:24:49;15.90;60.60
11387;DHT22;5748;53.102;8.456;2022-11-04T02:27:42;15.90;60.40
11387;DHT22;5748;53.102;8.456;2022-11-04T02:30:28;15.90;60.30
11387;DHT22;5748;53.102;8.456;2022-11-04T02:33:16;15.90;60.10
11387;DHT22;5748;53.102;8.456;2022-11-04T02:36:01;15.80;60.10
11387;DHT22;5748;53.102;8.456;2022-11-04T02:38:36;15.70;60.10
11387;DHT22;5748;53.102;8.456;2022-11-04T02:41:12;15.90;60.00
11387;DHT22;5748;53.102;8.456;2022-11-04T02:43:48;15.70;59.90
11387;DHT22;5748;53.102;8.456;2022-11-04T02:46:23;15.60;60.60
11387;DHT22;5748;53.102;8.456;2022-11-04T02:48:59;15.60;59.80
11387;DHT22;5748;53.102;8.456;2022-11-04T02:51:31;15.60;59.80
11387;DHT22;5748;53.102;8.456;2022-11-04T02:54:05;15.60;59.70
11387;DHT22;5748;53.102;8.456;2022-11-04T02:56:38;15.60;59.70
11387;DHT22;5748;53.102;8.456;2022-11-04T02:59:11;15.50;59.70
11387;DHT22;5748;53.102;8.456;2022-11-04T03:01:52;15.50;59.60
11387;DHT22;5748;53.102;8.456;2022-11-04T03:04:23;15.60;59.70
11387;DHT22;5748;53.102;8.456;2022-11-04T03:06:54;15.50;59.60
11387;DHT22;5748;53.102;8.456;2022-11-04T03:09:22;15.40;59.40
11387;DHT22;5748;53.102;8.456;2022-11-04T03:11:54;15.40;59.60
11387;DHT22;5748;53.102;8.456;2022-11-04T03:14:27;15.40;59.60
11387;DHT22;5748;53.102;8.456;2022-11-04T03:17:00;15.30;59.50
11387;DHT22;5748;53.102;8.456;2022-11-04T03:19:33;15.40;59.60
11387;DHT22;5748;53.102;8.456;2022-11-04T03:22:06;15.30;59.60
11387;DHT22;5748;53.102;8.456;2022-11-04T03:24:36;15.30;59.50
11387;DHT22;5748;53.102;8.456;2022-11-04T03:27:08;15.30;59.50
11387;DHT22;5748;53.102;8.456;2022-11-04T03:29:54;15.30;59.60
11387;DHT22;5748;53.102;8.456;2022-11-04T03:32:30;15.20;59.60
11387;DHT22;5748;53.102;8.456;2022-11-04T03:35:03;15.30;59.70
11387;DHT22;5748;53.102;8.456;2022-11-04T03:37:31;15.20;59.50
11387;DHT22;5748;53.102;8.456;2022-11-04T03:39:58;15.20;59.60
11387;DHT22;5748;53.102;8.456;2022-11-04T03:42:27;15.20;59.60
11387;DHT22;5748;53.102;8.456;2022-11-04T03:44:56;15.20;59.70
11387;DHT22;5748;53.102;8.456;2022-11-04T03:47:26;15.10;59.60
11387;DHT22;5748;53.102;8.456;2022-11-04T03:50:00;15.10;59.70
11387;DHT22;5748;53.102;8.456;2022-11-04T03:52:29;15.10;59.80
11387;DHT22;5748;53.102;8.456;2022-11-04T03:54:57;15.10;59.70
11387;DHT22;5748;53.102;8.456;2022-11-04T03:57:40;15.00;59.70
11387;DHT22;5748;53.102;8.456;2022-11-04T04:00:13;15.10;60.10
11387;DHT22;5748;53.102;8.456;2022-11-04T04:03:06;15.10;59.80
11387;DHT22;5748;53.102;8.456;2022-11-04T04:05:38;15.00;60.00
11387;DHT22;5748;53.102;8.456;2022-11-04T04:08:13;15.10;59.80
11387;DHT22;5748;53.102;8.456;2022-11-04T04:10:48;15.10;59.90
11387;DHT22;5748;53.102;8.456;2022-11-04T04:13:22;15.10;60.10
11387;DHT22;5748;53.102;8.456;2022-11-04T04:15:58;15.00;60.10
11387;DHT22;5748;53.102;8.456;2022-11-04T04:18:34;15.00;60.10
11387;DHT22;5748;53.102;8.456;2022-11-04T04:21:08;15.00;60.20
11387;DHT22;5748;53.102;8.456;2022-11-04T04:23:41;15.00;60.20
11387;DHT22;5748;53.102;8.456;2022-11-04T04:26:28;15.10;60.40
11387;DHT22;5748;53.102;8.456;2022-11-04T04:29:14;15.00;60.30
11387;DHT22;5748;53.102;8.456;2022-11-04T04:31:46;15.00;60.20
11387;DHT22;5748;53.102;8.456;2022-11-04T04:34:23;15.00;60.20
11387;DHT22;5748;53.102;8.456;2022-11-04T04:36:56;15.00;60.30
11387;DHT22;5748;53.102;8.456;2022-11-04T04:39:31;15.10;60.40
11387;DHT22;5748;53.102;8.456;2022-11-04T04:42:19;15.10;60.40
11387;DHT22;5748;53.102;8.456;2022-11-04T04:45:04;15.00;60.10
11387;DHT22;5748;53.102;8.456;2022-11-04T04:47:40;15.00;60.10
11387;DHT22;5748;53.102;8.456;2022-11-04T04:50:11;15.00;60.30
11387;DHT22;5748;53.102;8.456;2022-11-04T04:52:42;15.00;60.30
11387;DHT22;5748;53.102;8.456;2022-11-04T04:55:11;15.00;60.20
11387;DHT22;5748;53.102;8.456;2022-11-04T04:57:38;15.00;60.20
11387;DHT22;5748;53.102;8.456;2022-11-04T05:00:10;15.00;60.00
11387;DHT22;5748;53.102;8.456;2022-11-04T05:02:45;15.00;60.20
11387;DHT22;5748;53.102;8.456;2022-11-04T05:05:13;14.90;60.30
11387;DHT22;5748;53.102;8.456;2022-11-04T05:07:40;15.00;60.30
11387;DHT22;5748;53.102;8.456;2022-11-04T05:10:14;15.00;60.40
11387;DHT22;5748;53.102;8.456;2022-11-04T05:12:42;14.90;60.50
11387;DHT22;5748;53.102;8.456;2022-11-04T05:16:02;15.00;60.50
11387;DHT22;5748;53.102;8.456;2022-11-04T05:18:30;15.00;61.00
11387;DHT22;5748;53.102;8.456;2022-11-04T05:21:02;14.80;61.40
11387;DHT22;5748;53.102;8.456;2022-11-04T05:23:30;14.90;61.80
11387;DHT22;5748;53.102;8.456;2022-11-04T05:25:57;14.90;61.20
11387;DHT22;5748;53.102;8.456;2022-11-04T05:28:27;15.00;61.00
11387;DHT22;5748;53.102;8.456;2022-11-04T05:31:12;15.10;60.90
11387;DHT22;5748;53.102;8.456;2022-11-04T05:33:39;15.10;60.90
11387;DHT22;5748;53.102;8.456;2022-11-04T05:36:09;15.10;60.40
11387;DHT22;5748;53.102;8.456;2022-11-04T05:38:38;15.20;60.50
11387;DHT22;5748;53.102;8.456;2022-11-04T05:41:08;15.20;60.30
11387;DHT22;5748;53.102;8.456;2022-11-04T05:43:37;15.10;60.30
11387;DHT22;5748;53.102;8.456;2022-11-04T05:46:04;15.20;60.30
11387;DHT22;5748;53.102;8.456;2022-11-04T05:48:31;15.10;60.30
11387;DHT22;5748;53.102;8.456;2022-11-04T05:51:13;15.20;60.30
11387;DHT22;5748;53.102;8.456;2022-11-04T05:53:40;15.20;60.60
11387;DHT22;5748;53.102;8.456;2022-11-04T05:56:24;15.20;60.30
11387;DHT22;5748;53.102;8.456;2022-11-04T05:58:59;15.10;60.50
11387;DHT22;5748;53.102;8.456;2022-11-04T06:01:29;15.10;60.30
11387;DHT22;5748;53.102;8.456;2022-11-04T06:03:58;15.10;60.30
11387;DHT22;5748;53.102;8.456;2022-11-04T06:06:29;15.10;60.40
11387;DHT22;5748;53.102;8.456;2022-11-04T06:09:07;15.10;60.50
11387;DHT22;5748;53.102;8.456;2022-11-04T06:11:35;15.00;60.50
11387;DHT22;5748;53.102;8.456;2022-11-04T06:14:02;15.10;60.50
11387;DHT22;5748;53.102;8.456;2022-11-04T06:17:04;15.00;60.50
11387;DHT22;5748;53.102;8.456;2022-11-04T06:19:31;15.00;60.70
11387;DHT22;5748;53.102;8.456;2022-11-04T06:22:00;15.10;60.40
11387;DHT22;5748;53.102;8.456;2022-11-04T06:24:28;15.10;60.30
11387;DHT22;5748;53.102;8.456;2022-11-04T06:26:55;15.10;60.20
11387;DHT22;5748;53.102;8.456;2022-11-04T06:29:22;15.10;60.20
11387;DHT22;5748;53.102;8.456;2022-11-04T06:31:49;15.00;60.00
11387;DHT22;5748;53.102;8.456;2022-11-04T06:34:16;15.10;60.10
11387;DHT22;5748;53.102;8.456;2022-11-04T06:36:43;15.00;60.00
11387;DHT22;5748;53.102;8.456;2022-11-04T06:39:12;15.00;60.10
11387;DHT22;5748;53.102;8.456;2022-11-04T06:41:39;15.00;60.00
11387;DHT22;5748;53.102;8.456;2022-11-04T06:44:06;15.00;60.00
11387;DHT22;5748;53.102;8.456;2022-11-04T06:46:35;15.00;60.10
11387;DHT22;5748;53.102;8.456;2022-11-04T06:49:04;14.90;60.00
11387;DHT22;5748;53.102;8.456;2022-11-04T06:51:32;15.00;60.10
11387;DHT22;5748;53.102;8.456;2022-11-04T06:53:59;14.90;60.10
11387;DHT22;5748;53.102;8.456;2022-11-04T06:56:27;14.90;60.00
11387;DHT22;5748;53.102;8.456;2022-11-04T06:58:55;15.00;60.20
11387;DHT22;5748;53.102;8.456;2022-11-04T07:01:34;14.90;60.20
11387;DHT22;5748;53.102;8.456;2022-11-04T07:04:03;14.90;60.40
11387;DHT22;5748;53.102;8.456;2022-11-04T07:06:30;14.90;60.30
11387;DHT22;5748;53.102;8.456;2022-11-04T07:08:59;14.90;60.30
11387;DHT22;5748;53.102;8.456;2022-11-04T07:11:30;14.90;60.30
11387;DHT22;5748;53.102;8.456;2022-11-04T07:13:58;14.90;60.40
11387;DHT22;5748;53.102;8.456;2022-11-04T07:16:25;14.90;60.30
11387;DHT22;5748;53.102;8.456;2022-11-04T07:18:53;14.90;60.40
11387;DHT22;5748;53.102;8.456;2022-11-04T07:21:21;14.90;60.50
11387;DHT22;5748;53.102;8.456;2022-11-04T07:23:48;14.90;60.60
11387;DHT22;5748;53.102;8.456;2022-11-04T07:26:15;14.90;60.50
11387;DHT22;5748;53.102;8.456;2022-11-04T07:28:43;14.80;60.40
11387;DHT22;5748;53.102;8.456;2022-11-04T07:31:12;14.90;60.60
11387;DHT22;5748;53.102;8.456;2022-11-04T07:33:39;14.90;60.60
11387;DHT22;5748;53.102;8.456;2022-11-04T07:36:09;15.00;60.60
11387;DHT22;5748;53.102;8.456;2022-11-04T07:38:37;14.90;60.60
11387;DHT22;5748;53.102;8.456;2022-11-04T07:41:04;14.90;60.50
11387;DHT22;5748;53.102;8.456;2022-11-04T07:43:31;15.00;60.70
11387;DHT22;5748;53.102;8.456;2022-11-04T07:46:00;15.00;60.90
11387;DHT22;5748;53.102;8.456;2022-11-04T07:48:28;15.00;61.00
11387;DHT22;5748;53.102;8.456;2022-11-04T07:50:56;15.00;60.70
11387;DHT22;5748;53.102;8.456;2022-11-04T07:53:24;15.00;60.90
11387;DHT22;5748;53.102;8.456;2022-11-04T07:55:51;15.00;60.80
11387;DHT22;5748;53.102;8.456;2022-11-04T07:58:18;15.10;60.90
11387;DHT22;5748;53.102;8.456;2022-11-04T08:00:47;15.10;60.80
11387;DHT22;5748;53.102;8.456;2022-11-04T08:03:15;15.10;61.00
11387;DHT22;5748;53.102;8.456;2022-11-04T08:05:42;15.10;60.90
11387;DHT22;5748;53.102;8.456;2022-11-04T08:08:09;15.20;61.20
11387;DHT22;5748;53.102;8.456;2022-11-04T08:10:36;15.10;61.10
11387;DHT22;5748;53.102;8.456;2022-11-04T08:13:03;15.20;61.10
11387;DHT22;5748;53.102;8.456;2022-11-04T08:15:30;15.20;61.90
11387;DHT22;5748;53.102;8.456;2022-11-04T08:17:57;15.30;61.20
11387;DHT22;5748;53.102;8.456;2022-11-04T08:20:25;16.50;62.50
11387;DHT22;5748;53.102;8.456;2022-11-04T08:22:52;15.40;61.30
11387;DHT22;5748;53.102;8.456;2022-11-04T08:25:19;15.40;61.40
11387;DHT22;5748;53.102;8.456;2022-11-04T08:27:47;15.50;61.40
11387;DHT22;5748;53.102;8.456;2022-11-04T08:30:14;15.60;61.30
11387;DHT22;5748;53.102;8.456;2022-11-04T08:32:41;15.60;61.10
11387;DHT22;5748;53.102;8.456;2022-11-04T08:35:08;15.60;60.90
11387;DHT22;5748;53.102;8.456;2022-11-04T08:37:37;15.60;60.80
11387;DHT22;5748;53.102;8.456;2022-11-04T08:40:05;15.70;60.90
11387;DHT22;5748;53.102;8.456;2022-11-04T08:42:33;15.70;60.90
11387;DHT22;5748;53.102;8.456;2022-11-04T08:45:00;15.80;60.70
11387;DHT22;5748;53.102;8.456;2022-11-04T08:47:27;15.70;60.70
11387;DHT22;5748;53.102;8.456;2022-11-04T08:49:54;15.70;61.00
11387;DHT22;5748;53.102;8.456;2022-11-04T08:52:21;15.70;60.90
11387;DHT22;5748;53.102;8.456;2022-11-04T08:54:52;15.70;60.90
11387;DHT22;5748;53.102;8.456;2022-11-04T08:57:19;15.70;61.00
11387;DHT22;5748;53.102;8.456;2022-11-04T08:59:46;15.80;61.00
11387;DHT22;5748;53.102;8.456;2022-11-04T09:02:14;15.90;61.20
11387;DHT22;5748;53.102;8.456;2022-11-04T09:04:41;15.80;61.10
11387;DHT22;5748;53.102;8.456;2022-11-04T09:07:08;15.90;61.10
11387;DHT22;5748;53.102;8.456;2022-11-04T09:09:35;15.90;61.10
11387;DHT22;5748;53.102;8.456;2022-11-04T09:12:08;16.00;61.10
11387;DHT22;5748;53.102;8.456;2022-11-04T09:14:35;16.00;61.40
11387;DHT22;5748;53.102;8.456;2022-11-04T09:17:02;16.10;61.30
11387;DHT22;5748;53.102;8.456;2022-11-04T09:19:29;16.10;61.90
11387;DHT22;5748;53.102;8.456;2022-11-04T09:21:57;16.20;61.40
11387;DHT22;5748;53.102;8.456;2022-11-04T09:24:24;16.20;61.10
11387;DHT22;5748;53.102;8.456;2022-11-04T09:26:51;16.20;61.00
11387;DHT22;5748;53.102;8.456;2022-11-04T09:29:19;16.20;60.80
11387;DHT22;5748;53.102;8.456;2022-11-04T09:31:46;16.30;60.80
11387;DHT22;5748;53.102;8.456;2022-11-04T09:34:14;16.30;60.70
11387;DHT22;5748;53.102;8.456;2022-11-04T09:36:42;16.30;60.70
11387;DHT22;5748;53.102;8.456;2022-11-04T09:39:11;16.30;60.70
11387;DHT22;5748;53.102;8.456;2022-11-04T09:42:00;16.30;60.70
11387;DHT22;5748;53.102;8.456;2022-11-04T09:44:42;16.30;60.90
11387;DHT22;5748;53.102;8.456;2022-11-04T09:47:13;16.30;60.80
11387;DHT22;5748;53.102;8.456;2022-11-04T09:49:43;16.40;60.90
11387;DHT22;5748;53.102;8.456;2022-11-04T09:52:17;16.50;61.00
11387;DHT22;5748;53.102;8.456;2022-11-04T09:54:51;16.50;60.90
11387;DHT22;5748;53.102;8.456;2022-11-04T09:57:23;16.70;61.30
11387;DHT22;5748;53.102;8.456;2022-11-04T09:59:52;16.70;61.70
11387;DHT22;5748;53.102;8.456;2022-11-04T10:02:29;16.90;61.90
11387;DHT22;5748;53.102;8.456;2022-11-04T10:05:09;17.00;62.30
11387;DHT22;5748;53.102;8.456;2022-11-04T10:07:58;17.30;63.50
11387;DHT22;5748;53.102;8.456;2022-11-04T10:10:38;17.70;64.00
11387;DHT22;5748;53.102;8.456;2022-11-04T10:13:20;18.00;63.20
11387;DHT22;5748;53.102;8.456;2022-11-04T10:16:04;18.20;61.70
11387;DHT22;5748;53.102;8.456;2022-11-04T10:18:58;18.30;60.80
11387;DHT22;5748;53.102;8.456;2022-11-04T10:21:42;18.40;60.40
11387;DHT22;5748;53.102;8.456;2022-11-04T10:24:18;18.50;60.30
11387;DHT22;5748;53.102;8.456;2022-11-04T10:26:52;18.50;60.10
11387;DHT22;5748;53.102;8.456;2022-11-04T10:29:26;18.50;60.20
11387;DHT22;5748;53.102;8.456;2022-11-04T10:31:57;18.50;59.90
11387;DHT22;5748;53.102;8.456;2022-11-04T10:34:31;18.50;60.10
11387;DHT22;5748;53.102;8.456;2022-11-04T10:37:01;18.70;60.80
11387;DHT22;5748;53.102;8.456;2022-11-04T10:39:29;18.60;61.50
11387;DHT22;5748;53.102;8.456;2022-11-04T10:41:58;18.80;62.60
11387;DHT22;5748;53.102;8.456;2022-11-04T10:44:27;19.00;63.30
11387;DHT22;5748;53.102;8.456;2022-11-04T10:47:06;19.40;63.40
11387;DHT22;5748;53.102;8.456;2022-11-04T10:52:27;20.10;63.10
11387;DHT22;5748;53.102;8.456;2022-11-04T10:54:58;20.60;64.00
11387;DHT22;5748;53.102;8.456;2022-11-04T10:57:25;20.90;64.00
11387;DHT22;5748;53.102;8.456;2022-11-04T10:59:55;21.30;62.90
11387;DHT22;5748;53.102;8.456;2022-11-04T11:02:44;21.50;61.90
11387;DHT22;5748;53.102;8.456;2022-11-04T11:05:14;21.70;58.80
11387;DHT22;5748;53.102;8.456;2022-11-04T11:07:50;21.70;59.10
11387;DHT22;5748;53.102;8.456;2022-11-04T11:10:20;21.70;58.60
11387;DHT22;5748;53.102;8.456;2022-11-04T11:12:56;21.60;58.40
11387;DHT22;5748;53.102;8.456;2022-11-04T11:15:29;21.40;57.50
11387;DHT22;5748;53.102;8.456;2022-11-04T11:18:13;21.30;57.80
11387;DHT22;5748;53.102;8.456;2022-11-04T11:20:41;21.10;57.10
11387;DHT22;5748;53.102;8.456;2022-11-04T11:23:31;21.00;57.50
11387;DHT22;5748;53.102;8.456;2022-11-04T11:26:02;20.80;56.90
11387;DHT22;5748;53.102;8.456;2022-11-04T11:28:31;20.60;57.50
11387;DHT22;5748;53.102;8.456;2022-11-04T11:31:12;20.40;57.60
11387;DHT22;5748;53.102;8.456;2022-11-04T11:33:51;20.30;57.30
11387;DHT22;5748;53.102;8.456;2022-11-04T11:36:22;20.10;57.20
11387;DHT22;5748;53.102;8.456;2022-11-04T11:38:54;19.90;56.90
11387;DHT22;5748;53.102;8.456;2022-11-04T11:41:26;19.70;56.80
11387;DHT22;5748;53.102;8.456;2022-11-04T11:44:18;19.70;57.10
11387;DHT22;5748;53.102;8.456;2022-11-04T11:47:19;19.30;56.40
11387;DHT22;5748;53.102;8.456;2022-11-04T11:50:03;19.20;56.40
11387;DHT22;5748;53.102;8.456;2022-11-04T11:52:33;19.00;57.20
11387;DHT22;5748;53.102;8.456;2022-11-04T11:55:05;19.10;59.00
11387;DHT22;5748;53.102;8.456;2022-11-04T11:57:45;19.20;60.00
11387;DHT22;5748;53.102;8.456;2022-11-04T12:00:16;19.40;61.00
11387;DHT22;5748;53.102;8.456;2022-11-04T12:02:52;19.80;62.30
11387;DHT22;5748;53.102;8.456;2022-11-04T12:05:29;20.30;62.40
11387;DHT22;5748;53.102;8.456;2022-11-04T12:08:06;20.70;61.60
11387;DHT22;5748;53.102;8.456;2022-11-04T12:10:46;21.20;61.20
11387;DHT22;5748;53.102;8.456;2022-11-04T12:13:18;21.60;61.10
11387;DHT22;5748;53.102;8.456;2022-11-04T12:16:03;22.00;60.80
11387;DHT22;5748;53.102;8.456;2022-11-04T12:18:49;22.30;59.30
11387;DHT22;5748;53.102;8.456;2022-11-04T12:21:24;22.50;59.20
11387;DHT22;5748;53.102;8.456;2022-11-04T12:24:00;22.70;58.30
11387;DHT22;5748;53.102;8.456;2022-11-04T12:26:50;22.70;57.70
11387;DHT22;5748;53.102;8.456;2022-11-04T12:29:30;22.60;56.40
11387;DHT22;5748;53.102;8.456;2022-11-04T12:32:15;22.50;56.40
11387;DHT22;5748;53.102;8.456;2022-11-04T12:35:00;22.40;55.80
11387;DHT22;5748;53.102;8.456;2022-11-04T12:37:52;22.30;55.60
11387;DHT22;5748;53.102;8.456;2022-11-04T12:40:27;22.10;55.20
11387;DHT22;5748;53.102;8.456;2022-11-04T12:43:07;22.00;56.20
11387;DHT22;5748;53.102;8.456;2022-11-04T12:45:57;21.90;55.20
11387;DHT22;5748;53.102;8.456;2022-11-04T12:51:36;21.50;55.00
11387;DHT22;5748;53.102;8.456;2022-11-04T12:54:27;21.30;55.20
11387;DHT22;5748;53.102;8.456;2022-11-04T12:57:30;21.10;55.00
11387;DHT22;5748;53.102;8.456;2022-11-04T13:00:08;20.90;54.90
11387;DHT22;5748;53.102;8.456;2022-11-04T13:02:41;20.80;55.20
11387;DHT22;5748;53.102;8.456;2022-11-04T13:05:32;20.60;55.50
11387;DHT22;5748;53.102;8.456;2022-11-04T13:08:13;20.50;55.10
11387;DHT22;5748;53.102;8.456;2022-11-04T13:10:52;20.40;55.50
11387;DHT22;5748;53.102;8.456;2022-11-04T13:13:23;20.30;55.50
11387;DHT22;5748;53.102;8.456;2022-11-04T13:15:56;20.20;55.60
11387;DHT22;5748;53.102;8.456;2022-11-04T13:18:36;20.20;55.50
11387;DHT22;5748;53.102;8.456;2022-11-04T13:21:06;20.00;55.20
11387;DHT22;5748;53.102;8.456;2022-11-04T13:23:39;19.90;55.60
11387;DHT22;5748;53.102;8.456;2022-11-04T13:26:14;19.80;55.50
11387;DHT22;5748;53.102;8.456;2022-11-04T13:28:43;19.80;55.50
11387;DHT22;5748;53.102;8.456;2022-11-04T13:31:27;19.60;55.50
11387;DHT22;5748;53.102;8.456;2022-11-04T13:34:10;19.50;55.20
11387;DHT22;5748;53.102;8.456;2022-11-04T13:36:47;19.40;55.40
11387;DHT22;5748;53.102;8.456;2022-11-04T13:39:29;19.30;55.60
11387;DHT22;5748;53.102;8.456;2022-11-04T13:42:35;19.20;55.50
11387;DHT22;5748;53.102;8.456;2022-11-04T13:45:17;19.10;56.20
11387;DHT22;5748;53.102;8.456;2022-11-04T13:47:48;19.10;56.00
11387;DHT22;5748;53.102;8.456;2022-11-04T13:50:30;19.00;55.90
11387;DHT22;5748;53.102;8.456;2022-11-04T13:53:01;19.00;55.90
11387;DHT22;5748;53.102;8.456;2022-11-04T13:55:29;19.00;56.20
11387;DHT22;5748;53.102;8.456;2022-11-04T13:58:00;18.90;56.00
11387;DHT22;5748;53.102;8.456;2022-11-04T14:00:29;18.90;55.90
11387;DHT22;5748;53.102;8.456;2022-11-04T14:02:57;18.80;55.80
11387;DHT22;5748;53.102;8.456;2022-11-04T14:05:58;18.90;55.80
11387;DHT22;5748;53.102;8.456;2022-11-04T14:08:28;18.60;55.50
11387;DHT22;5748;53.102;8.456;2022-11-04T14:11:04;18.60;55.70
11387;DHT22;5748;53.102;8.456;2022-11-04T14:14:02;18.60;55.80
11387;DHT22;5748;53.102;8.456;2022-11-04T14:16:43;18.60;56.40
11387;DHT22;5748;53.102;8.456;2022-11-04T14:22:34;18.40;55.60
11387;DHT22;5748;53.102;8.456;2022-11-04T14:25:19;18.30;55.50
11387;DHT22;5748;53.102;8.456;2022-11-04T14:27:51;18.20;55.20
11387;DHT22;5748;53.102;8.456;2022-11-04T14:30:43;18.20;55.40
11387;DHT22;5748;53.102;8.456;2022-11-04T14:33:33;18.00;55.10
11387;DHT22;5748;53.102;8.456;2022-11-04T14:36:39;18.00;55.20
11387;DHT22;5748;53.102;8.456;2022-11-04T14:39:20;17.90;55.20
11387;DHT22;5748;53.102;8.456;2022-11-04T14:41:52;17.80;55.30
11387;DHT22;5748;53.102;8.456;2022-11-04T14:44:29;17.70;55.40
11387;DHT22;5748;53.102;8.456;2022-11-04T14:47:17;17.70;55.50
11387;DHT22;5748;53.102;8.456;2022-11-04T14:49:47;17.70;56.20
11387;DHT22;5748;53.102;8.456;2022-11-04T14:52:21;17.70;55.70
11387;DHT22;5748;53.102;8.456;2022-11-04T14:54:54;17.60;55.70
11387;DHT22;5748;53.102;8.456;2022-11-04T14:57:23;17.70;55.90
11387;DHT22;5748;53.102;8.456;2022-11-04T14:59:50;17.50;55.70
11387;DHT22;5748;53.102;8.456;2022-11-04T15:02:21;17.60;55.90
11387;DHT22;5748;53.102;8.456;2022-11-04T15:04:54;17.60;56.00
11387;DHT22;5748;53.102;8.456;2022-11-04T15:07:32;17.60;56.00
11387;DHT22;5748;53.102;8.456;2022-11-04T15:10:15;17.60;55.90
11387;DHT22;5748;53.102;8.456;2022-11-04T15:12:45;17.60;56.60
11387;DHT22;5748;53.102;8.456;2022-11-04T15:15:28;17.60;55.90
11387;DHT22;5748;53.102;8.456;2022-11-04T15:18:00;17.50;55.80
11387;DHT22;5748;53.102;8.456;2022-11-04T15:20:32;17.50;55.90
11387;DHT22;5748;53.102;8.456;2022-11-04T15:23:05;17.50;56.00
11387;DHT22;5748;53.102;8.456;2022-11-04T15:25:35;17.50;56.00
11387;DHT22;5748;53.102;8.456;2022-11-04T15:28:02;17.50;56.10
11387;DHT22;5748;53.102;8.456;2022-11-04T15:30:30;17.40;56.10
11387;DHT22;5748;53.102;8.456;2022-11-04T15:33:01;18.20;57.10
11387;DHT22;5748;53.102;8.456;2022-11-04T15:35:30;17.40;56.20
11387;DHT22;5748;53.102;8.456;2022-11-04T15:38:10;17.40;56.20
11387;DHT22;5748;53.102;8.456;2022-11-04T15:40:40;17.50;56.40
11387;DHT22;5748;53.102;8.456;2022-11-04T15:43:07;17.30;56.30
11387;DHT22;5748;53.102;8.456;2022-11-04T15:45:38;17.40;56.20
11387;DHT22;5748;53.102;8.456;2022-11-04T15:48:24;17.30;56.20
11387;DHT22;5748;53.102;8.456;2022-11-04T15:51:01;17.30;56.20
11387;DHT22;5748;53.102;8.456;2022-11-04T15:53:51;17.20;56.00
11387;DHT22;5748;53.102;8.456;2022-11-04T15:56:21;17.20;56.00
11387;DHT22;5748;53.102;8.456;2022-11-04T15:58:53;17.20;55.90
11387;DHT22;5748;53.102;8.456;2022-11-04T16:01:22;17.10;55.70
11387;DHT22;5748;53.102;8.456;2022-11-04T16:03:53;17.10;56.00
11387;DHT22;5748;53.102;8.456;2022-11-04T16:06:34;17.00;55.60
11387;DHT22;5748;53.102;8.456;2022-11-04T16:09:17;16.90;55.50
11387;DHT22;5748;53.102;8.456;2022-11-04T16:12:06;16.90;55.50
11387;DHT22;5748;53.102;8.456;2022-11-04T16:14:37;16.70;55.30
11387;DHT22;5748;53.102;8.456;2022-11-04T16:17:09;16.70;55.20
11387;DHT22;5748;53.102;8.456;2022-11-04T16:20:16;16.60;55.20
11387;DHT22;5748;53.102;8.456;2022-11-04T16:22:43;16.50;55.30
11387;DHT22;5748;53.102;8.456;2022-11-04T16:25:18;16.40;55.20
11387;DHT22;5748;53.102;8.456;2022-11-04T16:27:48;16.30;55.30
11387;DHT22;5748;53.102;8.456;2022-11-04T16:30:17;16.20;55.20
11387;DHT22;5748;53.102;8.456;2022-11-04T16:32:46;16.10;55.20
11387;DHT22;5748;53.102;8.456;2022-11-04T16:35:18;16.00;55.30
11387;DHT22;5748;53.102;8.456;2022-11-04T16:37:47;16.00;55.40
11387;DHT22;5748;53.102;8.456;2022-11-04T16:40:15;15.90;56.00